Time;durP1;ratioP1;P1;durP2;ratioP2;P2;SDS_P1;SDS_P2;PMS_P1;PMS_P2;Temp;Humidity;BMP_temperature;BMP_pressure;BME280_temperature;BME280_humidity;BME280_pressure;Samples;Min_cycle;Max_cycle;Signal;HPM_P1;HPM_P2
2022/10/15 00:01:40;;;;;;;128.55;57.60;;;11.70;99.90;;;;;;5019040;28;20404;-64
2022/10/15 00:04:06;;;;;;;112.05;54.55;;;11.90;99.90;;;;;;5087248;28;20483;-64
2022/10/15 00:06:32;;;;;;;125.80;58.28;;;11.70;99.90;;;;;;5014403;28;20040;-64
2022/10/15 00:08:58;;;;;;;124.72;57.35;;;11.70;99.90;;;;;;5043541;28;20052;-64
2022/10/15 00:11:25;;;;;;;115.32;57.15;;;12.20;99.90;;;;;;5013611;28;20058;-64
2022/10/15 00:13:55;;;;;;;142.32;61.53;;;11.70;99.90;;;;;;5048192;28;20048;-65
2022/10/15 00:16:24;;;;;;;122.88;60.45;;;11.70;99.90;;;;;;5063026;28;20059;-64
2022/10/15 00:18:51;;;;;;;139.82;60.78;;;11.70;99.90;;;;;;5047801;28;20047;-65
2022/10/15 00:21:18;;;;;;;125.82;60.38;;;12.10;99.90;;;;;;5063390;28;20371;-63
2022/10/15 00:23:45;;;;;;;136.15;64.47;;;11.70;99.90;;;;;;5063986;28;20077;-64
2022/10/15 00:26:14;;;;;;;141.93;64.80;;;12.30;99.90;;;;;;5062088;28;20036;-64
2022/10/15 00:28:40;;;;;;;124.05;60.63;;;12.40;99.90;;;;;;5064449;28;20075;-64
2022/10/15 00:31:08;;;;;;;133.85;64.50;;;11.80;99.90;;;;;;5058836;28;20036;-64
2022/10/15 00:33:34;;;;;;;133.65;64.63;;;11.80;99.90;;;;;;5063789;28;20486;-64
2022/10/15 00:36:07;;;;;;;154.27;70.18;;;12.40;99.90;;;;;;5062994;28;20036;-65
2022/10/15 00:38:34;;;;;;;155.50;69.13;;;11.70;99.90;;;;;;5063997;28;20055;-64
2022/10/15 00:41:00;;;;;;;140.40;65.88;;;12.50;99.90;;;;;;5046140;28;20036;-64
2022/10/15 00:43:40;;;;;;;151.90;68.50;;;12.20;99.90;;;;;;5063773;28;20032;-64
2022/10/15 00:46:30;;;;;;;150.50;69.70;;;11.90;99.90;;;;;;5063604;28;20143;-64
2022/10/15 00:49:16;;;;;;;158.98;68.78;;;12.40;99.90;;;;;;5062474;28;20140;-64
2022/10/15 00:52:06;;;;;;;148.25;71.30;;;12.30;99.90;;;;;;5063719;28;20052;-64
2022/10/15 00:54:36;;;;;;;141.00;67.57;;;12.30;99.90;;;;;;5063566;28;20083;-64
2022/10/15 00:57:04;;;;;;;163.30;74.82;;;12.30;99.90;;;;;;5046013;28;20106;-64
2022/10/15 00:59:32;;;;;;;152.70;72.47;;;12.40;99.90;;;;;;5048206;28;20035;-64
2022/10/15 01:02:00;;;;;;;127.40;66.63;;;11.90;99.90;;;;;;5063774;28;20036;-64
2022/10/15 01:04:27;;;;;;;151.00;70.35;;;11.90;99.90;;;;;;5062977;28;20374;-64
2022/10/15 01:06:53;;;;;;;145.77;71.05;;;11.90;99.90;;;;;;5032181;28;20123;-64
2022/10/15 01:09:18;;;;;;;137.07;67.32;;;12.30;99.90;;;;;;5054115;28;20091;-64
2022/10/15 01:11:53;;;;;;;151.50;71.30;;;12.50;99.90;;;;;;5062890;28;20790;-63
2022/10/15 01:14:19;;;;;;;171.20;77.78;;;11.90;99.90;;;;;;5063256;28;20032;-63
2022/10/15 01:16:53;;;;;;;149.38;72.40;;;12.60;99.90;;;;;;5046268;28;20117;-64
2022/10/15 01:19:24;;;;;;;159.90;72.18;;;12.40;99.90;;;;;;5061016;28;20051;-64
2022/10/15 01:22:04;;;;;;;152.10;72.60;;;12.30;99.90;;;;;;5062954;28;20043;-63
2022/10/15 01:24:44;;;;;;;147.52;69.65;;;12.60;99.90;;;;;;5063197;28;20499;-64
2022/10/15 01:27:18;;;;;;;145.68;71.63;;;12.40;99.90;;;;;;5045799;28;20074;-64
2022/10/15 01:30:06;;;;;;;161.75;78.25;;;12.40;99.90;;;;;;5062191;28;20515;-64
2022/10/15 01:32:38;;;;;;;144.70;71.72;;;12.10;99.90;;;;;;5062752;28;20075;-64
2022/10/15 01:35:32;;;;;;;149.65;77.43;;;11.90;99.90;;;;;;5062693;28;20040;-64
2022/10/15 01:38:36;;;;;;;155.80;76.85;;;11.90;99.90;;;;;;5061823;28;20301;-64
2022/10/15 01:41:16;;;;;;;180.48;81.57;;;12.10;99.90;;;;;;5001476;28;20135;-65
2022/10/15 01:43:44;;;;;;;157.73;78.47;;;12.40;99.90;;;;;;5058018;28;20044;-64
2022/10/15 01:46:17;;;;;;;162.55;77.78;;;12.40;99.90;;;;;;5075285;28;20418;-64
2022/10/15 01:48:43;;;;;;;;;;;12.50;99.90;;;;;;5045848;28;20081;-64
2022/10/15 01:51:11;;;;;;;143.10;72.70;;;12.10;99.90;;;;;;5045639;28;19920;-64
2022/10/15 01:53:38;;;;;;;173.48;84.75;;;12.30;99.90;;;;;;5045769;28;20295;-64
2022/10/15 01:56:10;;;;;;;169.68;84.38;;;12.40;99.90;;;;;;5061137;28;20513;-64
2022/10/15 01:58:43;;;;;;;156.13;78.63;;;11.80;99.90;;;;;;5046282;28;20036;-64
2022/10/15 02:01:09;;;;;;;146.23;80.30;;;11.80;99.90;;;;;;5061805;28;20348;-65
2022/10/15 02:03:52;;;;;;;150.10;76.75;;;12.40;99.90;;;;;;5062317;28;20035;-64
2022/10/15 02:06:39;;;;;;;143.77;76.18;;;11.70;99.90;;;;;;5065720;28;20489;-65
2022/10/15 02:09:19;;;;;;;155.90;79.32;;;12.40;99.90;;;;;;5061029;28;20712;-64
2022/10/15 02:12:10;;;;;;;141.30;73.80;;;12.50;99.90;;;;;;5045682;28;20361;-64
2022/10/15 02:14:45;;;;;;;151.75;77.53;;;12.00;99.90;;;;;;5030755;28;20544;-64
2022/10/15 02:17:13;;;;;;;147.43;78.22;;;11.90;99.90;;;;;;5060789;28;20051;-64
2022/10/15 02:19:53;;;;;;;142.70;75.65;;;12.20;99.90;;;;;;5045094;28;20506;-64
2022/10/15 02:22:26;;;;;;;147.60;77.20;;;12.40;99.90;;;;;;5061436;28;20262;-65
2022/10/15 02:25:03;;;;;;;137.82;73.93;;;12.30;99.90;;;;;;5062207;28;20537;-64
2022/10/15 02:27:31;;;;;;;165.20;81.63;;;12.30;99.90;;;;;;5045185;28;20591;-64
2022/10/15 02:30:00;;;;;;;134.88;72.60;;;12.40;99.90;;;;;;5062729;28;20040;-65
2022/10/15 02:32:27;;;;;;;130.02;72.53;;;12.30;99.90;;;;;;5061318;28;20044;-64
2022/10/15 02:34:53;;;;;;;149.35;77.13;;;11.70;99.90;;;;;;5062329;28;20036;-64
2022/10/15 02:37:23;;;;;;;132.88;73.40;;;11.90;99.90;;;;;;5043761;28;20472;-64
2022/10/15 02:39:49;;;;;;;138.55;73.53;;;12.40;99.90;;;;;;5045366;28;20072;-64
2022/10/15 02:42:18;;;;;;;153.00;78.57;;;12.10;99.90;;;;;;5014653;28;20074;-64
2022/10/15 02:44:44;;;;;;;154.75;79.50;;;12.40;99.90;;;;;;5035824;28;20036;-64
2022/10/15 02:47:10;;;;;;;151.07;78.15;;;12.00;99.90;;;;;;5061443;28;20058;-64
2022/10/15 02:49:36;;;;;;;124.07;70.93;;;12.50;99.90;;;;;;5044212;28;20084;-64
2022/10/15 02:52:02;;;;;;;139.52;75.18;;;12.50;99.90;;;;;;5054783;28;20032;-64
2022/10/15 02:54:28;;;;;;;135.77;73.78;;;12.00;99.90;;;;;;5037030;28;20343;-65
2022/10/15 02:56:53;;;;;;;120.05;68.97;;;12.00;99.90;;;;;;5061191;28;20128;-65
2022/10/15 02:59:19;;;;;;;138.15;74.70;;;12.30;99.90;;;;;;5060182;28;20125;-64
2022/10/15 03:01:45;;;;;;;142.73;74.43;;;12.10;99.90;;;;;;5045550;28;20142;-64
2022/10/15 03:04:11;;;;;;;120.72;68.20;;;12.20;99.90;;;;;;5069246;28;20087;-64
2022/10/15 03:06:37;;;;;;;118.50;68.78;;;12.40;99.90;;;;;;5045489;28;20533;-64
2022/10/15 03:09:03;;;;;;;146.23;76.40;;;11.90;99.90;;;;;;5060644;28;20567;-64
2022/10/15 03:11:29;;;;;;;135.68;72.28;;;12.30;99.90;;;;;;5062122;28;20043;-64
2022/10/15 03:13:55;;;;;;;121.68;67.40;;;12.30;99.90;;;;;;5061138;28;20570;-62
2022/10/15 03:16:20;;;;;;;123.88;69.80;;;12.10;99.90;;;;;;5060493;28;20052;-64
2022/10/15 03:18:46;;;;;;;133.50;73.10;;;12.30;99.90;;;;;;5061121;28;20093;-64
2022/10/15 03:21:12;;;;;;;112.93;65.93;;;11.60;99.90;;;;;;5044058;28;20044;-62
2022/10/15 03:23:37;;;;;;;126.03;70.03;;;12.30;99.90;;;;;;5013618;28;20036;-62
2022/10/15 03:26:03;;;;;;;128.95;72.57;;;11.70;99.90;;;;;;5061320;28;20047;-64
2022/10/15 03:28:29;;;;;;;117.28;68.60;;;12.40;99.90;;;;;;5044029;28;20040;-62
2022/10/15 03:30:54;;;;;;;124.45;68.90;;;12.40;99.90;;;;;;5072605;28;20345;-64
2022/10/15 03:33:20;;;;;;;125.28;71.18;;;11.80;99.90;;;;;;5060386;28;20048;-63
2022/10/15 03:35:46;;;;;;;118.63;66.40;;;12.40;99.90;;;;;;5043986;28;20538;-66
2022/10/15 03:38:12;;;;;;;104.95;63.95;;;12.20;99.90;;;;;;5044069;28;20047;-64
2022/10/15 03:40:37;;;;;;;130.95;73.07;;;12.20;99.90;;;;;;5060960;28;20326;-64
2022/10/15 03:43:03;;;;;;;115.63;67.88;;;12.20;99.90;;;;;;5032541;28;20047;-67
2022/10/15 03:45:28;;;;;;;113.78;67.80;;;12.20;99.90;;;;;;5061331;28;20039;-64
2022/10/15 03:47:54;;;;;;;147.55;79.95;;;12.00;99.90;;;;;;5063663;28;20404;-65
2022/10/15 03:50:20;;;;;;;132.57;74.03;;;11.70;99.90;;;;;;5082644;28;20051;-64
2022/10/15 03:52:45;;;;;;;125.60;72.50;;;11.90;99.90;;;;;;5038830;28;20052;-67
2022/10/15 03:55:11;;;;;;;110.70;68.65;;;11.60;99.90;;;;;;5082102;28;20059;-64
2022/10/15 03:57:38;;;;;;;120.95;67.05;;;11.70;99.90;;;;;;5048648;28;20047;-64
2022/10/15 04:00:06;;;;;;;125.70;71.75;;;11.80;99.90;;;;;;5047910;28;20047;-64
2022/10/15 04:02:32;;;;;;;125.22;72.22;;;11.90;99.90;;;;;;5064396;28;20093;-63
2022/10/15 04:04:58;;;;;;;120.00;68.50;;;11.90;99.90;;;;;;5064676;28;20440;-64
2022/10/15 04:07:24;;;;;;;130.25;70.88;;;12.00;99.90;;;;;;5047495;28;20119;-65
2022/10/15 04:09:50;;;;;;;150.32;78.38;;;12.30;99.90;;;;;;5064906;28;20036;-63
2022/10/15 04:12:16;;;;;;;129.20;72.32;;;12.00;99.90;;;;;;5033717;28;20400;-65
2022/10/15 04:14:41;;;;;;;126.50;72.72;;;11.50;99.90;;;;;;5047645;28;20114;-63
2022/10/15 04:17:08;;;;;;;112.90;67.18;;;11.60;99.90;;;;;;5064108;28;20538;-63
2022/10/15 04:19:33;;;;;;;112.45;65.10;;;12.00;99.90;;;;;;5047290;28;20083;-63
2022/10/15 04:21:59;;;;;;;115.13;68.70;;;11.70;99.90;;;;;;5065223;28;20454;-62
2022/10/15 04:24:25;;;;;;;111.35;67.40;;;11.70;99.90;;;;;;5046497;28;20353;-63
2022/10/15 04:26:51;;;;;;;117.47;67.60;;;12.10;99.90;;;;;;5063501;28;20062;-62
2022/10/15 04:29:17;;;;;;;101.63;61.15;;;11.70;99.90;;;;;;5064234;28;20504;-63
2022/10/15 04:31:42;;;;;;;113.63;67.05;;;12.20;99.90;;;;;;5064354;28;20047;-63
2022/10/15 04:34:09;;;;;;;110.20;63.70;;;11.80;99.90;;;;;;5063845;28;20627;-64
2022/10/15 04:36:35;;;;;;;101.65;63.88;;;11.60;99.90;;;;;;5063861;28;20032;-63
2022/10/15 04:39:01;;;;;;;103.00;63.22;;;12.20;99.90;;;;;;5063102;28;20059;-63
2022/10/15 04:41:27;;;;;;;93.00;59.42;;;11.70;99.90;;;;;;5088853;28;20036;-64
2022/10/15 04:43:53;;;;;;;93.45;59.20;;;11.90;99.90;;;;;;5062980;28;20611;-63
2022/10/15 04:46:21;;;;;;;87.65;55.33;;;11.60;99.90;;;;;;5063676;28;20131;-63
2022/10/15 04:48:47;;;;;;;90.13;58.65;;;12.00;99.90;;;;;;5064221;28;20281;-63
2022/10/15 04:51:18;;;;;;;95.03;60.28;;;12.00;99.90;;;;;;5033665;28;20168;-63
2022/10/15 04:53:44;;;;;;;94.38;58.10;;;12.40;99.90;;;;;;5063711;28;20391;-63
2022/10/15 04:56:16;;;;;;;98.30;60.40;;;12.20;99.90;;;;;;5062856;28;20048;-63
2022/10/15 04:58:44;;;;;;;101.10;59.65;;;12.20;99.90;;;;;;5062638;28;20040;-66
2022/10/15 05:01:19;;;;;;;98.57;58.58;;;11.60;99.90;;;;;;5063191;28;20066;-63
2022/10/15 05:03:46;;;;;;;99.20;60.88;;;12.40;99.90;;;;;;5081934;28;20068;-63
2022/10/15 05:06:17;;;;;;;109.70;63.85;;;11.90;99.90;;;;;;5046413;28;20093;-63
2022/10/15 05:08:43;;;;;;;111.55;64.72;;;11.60;99.90;;;;;;5064063;28;20044;-64
2022/10/15 05:11:18;;;;;;;121.05;68.13;;;11.80;99.90;;;;;;5058017;28;20555;-64
2022/10/15 05:13:44;;;;;;;137.32;70.38;;;11.70;99.90;;;;;;5046503;28;20101;-64
2022/10/15 05:16:24;;;;;;;118.95;66.03;;;11.60;99.90;;;;;;5062913;28;20413;-63
2022/10/15 05:18:53;;;;;;;115.35;61.67;;;12.30;99.90;;;;;;5063542;28;20094;-65
2022/10/15 05:21:19;;;;;;;134.15;68.95;;;11.60;99.90;;;;;;5062680;28;20067;-64
2022/10/15 05:23:46;;;;;;;127.82;68.85;;;12.20;99.90;;;;;;5063058;28;20036;-64
2022/10/15 05:26:22;;;;;;;119.65;65.18;;;11.90;99.90;;;;;;5054419;28;20445;-64
2022/10/15 05:28:49;;;;;;;127.05;65.63;;;11.50;99.90;;;;;;5062885;28;20039;-64
2022/10/15 05:31:18;;;;;;;143.20;71.60;;;11.40;99.90;;;;;;5062648;28;20506;-63
2022/10/15 05:33:44;;;;;;;131.32;66.43;;;11.90;99.90;;;;;;5063337;28;20043;-64
2022/10/15 05:36:21;;;;;;;117.38;63.38;;;11.50;99.90;;;;;;5061605;28;20105;-64
2022/10/15 05:38:49;;;;;;;140.32;73.30;;;11.60;99.90;;;;;;5063203;28;20059;-64
2022/10/15 05:41:15;;;;;;;126.97;66.93;;;11.90;99.90;;;;;;5062885;28;20044;-64
2022/10/15 05:43:41;;;;;;;142.90;71.90;;;11.40;99.90;;;;;;5063386;28;20132;-64
2022/10/15 05:46:07;;;;;;;127.70;65.35;;;12.00;99.90;;;;;;5061374;28;20437;-63
2022/10/15 05:48:33;;;;;;;126.40;63.80;;;11.40;99.90;;;;;;5063178;28;20533;-64
2022/10/15 05:51:07;;;;;;;131.10;65.00;;;11.30;99.90;;;;;;5070622;28;20106;-63
2022/10/15 05:53:33;;;;;;;126.90;67.22;;;12.10;99.90;;;;;;5032006;28;20600;-63
2022/10/15 05:55:59;;;;;;;129.65;67.63;;;11.80;99.90;;;;;;5062061;28;20048;-63
2022/10/15 05:58:26;;;;;;;137.38;69.35;;;11.80;99.90;;;;;;5062711;28;20032;-63
2022/10/15 06:00:53;;;;;;;139.25;71.03;;;11.40;99.90;;;;;;5062588;28;20036;-63
2022/10/15 06:03:19;;;;;;;129.85;68.65;;;11.30;99.90;;;;;;5014912;28;20148;-63
2022/10/15 06:05:45;;;;;;;137.35;69.80;;;11.60;99.90;;;;;;5082859;28;20521;-63
2022/10/15 06:08:10;;;;;;;122.78;67.10;;;11.90;99.90;;;;;;5061012;28;20040;-64
2022/10/15 06:10:37;;;;;;;136.10;69.97;;;12.00;99.90;;;;;;5060990;28;20044;-64
2022/10/15 06:13:03;;;;;;;126.18;66.57;;;11.30;99.90;;;;;;5062059;28;20043;-63
2022/10/15 06:15:29;;;;;;;123.22;63.97;;;12.10;99.90;;;;;;5079019;28;20507;-64
2022/10/15 06:17:55;;;;;;;146.65;71.35;;;12.10;99.90;;;;;;5034092;28;20522;-64
2022/10/15 06:20:20;;;;;;;140.98;70.43;;;12.20;99.90;;;;;;5074289;28;20052;-63
2022/10/15 06:22:46;;;;;;;126.57;69.15;;;11.70;99.90;;;;;;5070165;28;20044;-63
2022/10/15 06:25:12;;;;;;;139.55;70.78;;;12.00;99.90;;;;;;5086517;28;20047;-63
2022/10/15 06:27:37;;;;;;;137.43;70.93;;;11.40;99.90;;;;;;5061301;28;20035;-64
2022/10/15 06:30:04;;;;;;;123.03;64.93;;;11.50;99.90;;;;;;5061280;28;20127;-63
2022/10/15 06:32:29;;;;;;;150.70;73.78;;;12.10;99.90;;;;;;5030790;28;20287;-64
2022/10/15 06:34:55;;;;;;;140.25;72.55;;;12.00;99.90;;;;;;5044041;28;20048;-64
2022/10/15 06:37:21;;;;;;;136.85;70.63;;;12.10;99.90;;;;;;5061283;28;20458;-64
2022/10/15 06:39:46;;;;;;;133.70;69.75;;;11.90;99.90;;;;;;5044973;28;20050;-65
2022/10/15 06:42:12;;;;;;;153.40;78.35;;;11.40;99.90;;;;;;5060447;28;20129;-64
2022/10/15 06:44:38;;;;;;;137.50;73.00;;;11.70;99.90;;;;;;5018517;28;20050;-64
2022/10/15 06:47:04;;;;;;;122.40;68.13;;;11.60;99.90;;;;;;5045811;28;20047;-62
2022/10/15 06:49:30;;;;;;;121.32;66.40;;;12.10;99.90;;;;;;5049263;28;20565;-63
2022/10/15 06:51:58;;;;;;;139.02;74.78;;;12.00;99.90;;;;;;5089103;28;20450;-64
2022/10/15 06:54:24;;;;;;;128.80;68.60;;;11.60;99.90;;;;;;5069537;28;20371;-63
2022/10/15 06:56:50;;;;;;;129.70;70.55;;;11.60;99.90;;;;;;5060972;28;20500;-63
2022/10/15 06:59:16;;;;;;;126.25;68.28;;;11.70;99.90;;;;;;5061923;28;20040;-63
2022/10/15 07:01:41;;;;;;;127.90;69.82;;;12.10;99.90;;;;;;5035597;28;20131;-64
2022/10/15 07:04:07;;;;;;;130.75;67.80;;;12.40;99.90;;;;;;5096238;28;20520;-64
2022/10/15 07:06:36;;;;;;;120.68;64.40;;;11.60;99.90;;;;;;5065750;28;20051;-63
2022/10/15 07:09:03;;;;;;;135.25;70.45;;;12.40;99.90;;;;;;5093037;28;20047;-64
2022/10/15 07:11:28;;;;;;;125.95;68.75;;;11.90;99.90;;;;;;5059907;28;20044;-65
2022/10/15 07:13:56;;;;;;;127.60;68.38;;;12.30;99.90;;;;;;5078264;28;20047;-64
2022/10/15 07:16:23;;;;;;;116.85;67.40;;;12.10;99.90;;;;;;5060199;28;20040;-64
2022/10/15 07:18:49;;;;;;;123.95;69.50;;;11.70;99.90;;;;;;5051879;28;20048;-63
2022/10/15 07:21:14;;;;;;;113.32;64.68;;;11.90;99.90;;;;;;5013563;28;20489;-63
2022/10/15 07:23:40;;;;;;;116.80;65.38;;;12.40;99.90;;;;;;5062627;28;20131;-66
2022/10/15 07:26:07;;;;;;;122.90;68.35;;;12.40;99.90;;;;;;5062727;28;21521;-65
2022/10/15 07:28:33;;;;;;;123.32;68.60;;;12.10;99.90;;;;;;5061964;28;20393;-65
2022/10/15 07:31:04;;;;;;;111.45;62.78;;;12.50;99.90;;;;;;5089857;28;20047;-65
2022/10/15 07:33:33;;;;;;;105.88;60.35;;;12.70;99.90;;;;;;5043981;28;20777;-63
2022/10/15 07:36:02;;;;;;;112.07;62.85;;;12.70;99.90;;;;;;5045868;28;20193;-64
2022/10/15 07:38:28;;;;;;;123.90;67.88;;;12.80;99.90;;;;;;5061326;28;20036;-64
2022/10/15 07:40:58;;;;;;;108.28;63.70;;;12.00;99.90;;;;;;5019652;28;20036;-63
2022/10/15 07:43:24;;;;;;;110.63;61.63;;;12.70;99.90;;;;;;5047268;28;20039;-63
2022/10/15 07:45:50;;;;;;;95.97;59.17;;;12.10;99.90;;;;;;5031493;28;20101;-64
2022/10/15 07:48:16;;;;;;;97.82;59.22;;;12.70;99.90;;;;;;5065495;28;20072;-64
2022/10/15 07:50:41;;;;;;;102.35;61.88;;;12.80;99.90;;;;;;5048952;28;20059;-64
2022/10/15 07:53:07;;;;;;;90.53;57.63;;;13.10;99.90;;;;;;5065933;28;20044;-64
2022/10/15 07:55:33;;;;;;;90.10;53.75;;;12.30;99.90;;;;;;5048858;28;20055;-63
2022/10/15 07:57:59;;;;;;;93.05;58.35;;;13.10;99.90;;;;;;5065347;28;20397;-63
2022/10/15 08:00:25;;;;;;;96.70;59.85;;;13.30;99.90;;;;;;5048678;28;20086;-63
2022/10/15 08:02:51;;;;;;;90.30;58.10;;;12.50;99.90;;;;;;5048656;28;20047;-63
2022/10/15 08:05:16;;;;;;;94.20;58.25;;;12.50;99.90;;;;;;5065364;28;20036;-63
2022/10/15 08:07:42;;;;;;;97.93;59.53;;;13.40;99.90;;;;;;5048397;28;20048;-64
2022/10/15 08:10:09;;;;;;;87.85;56.40;;;13.20;99.90;;;;;;5064886;28;20044;-64
2022/10/15 08:12:35;;;;;;;74.40;52.63;;;13.50;99.90;;;;;;5065067;28;20056;-66
2022/10/15 08:15:01;;;;;;;71.03;50.90;;;13.30;99.90;;;;;;5098644;28;20052;-63
2022/10/15 08:17:27;;;;;;;68.00;47.22;;;14.50;99.90;;;;;;5081749;28;20048;-64
2022/10/15 08:19:54;;;;;;;66.55;47.67;;;13.80;99.90;;;;;;5098345;28;20075;-63
2022/10/15 08:22:19;;;;;;;62.38;47.47;;;14.50;99.90;;;;;;5048936;28;20051;-63
2022/10/15 08:24:45;;;;;;;63.88;46.25;;;14.20;99.90;;;;;;5048622;28;20040;-64
2022/10/15 08:27:11;;;;;;;61.30;46.63;;;14.20;99.90;;;;;;5064314;28;20104;-64
2022/10/15 08:29:36;;;;;;;56.00;41.60;;;14.80;99.90;;;;;;5098278;28;20048;-63
2022/10/15 08:32:02;;;;;;;56.70;41.85;;;14.60;99.90;;;;;;5098304;28;20048;-64
2022/10/15 08:34:28;;;;;;;51.85;39.75;;;15.20;99.90;;;;;;5081556;28;20055;-65
2022/10/15 08:36:53;;;;;;;57.05;42.80;;;15.30;99.90;;;;;;5098818;28;20393;-64
2022/10/15 08:39:19;;;;;;;50.90;41.10;;;14.80;99.90;;;;;;5048281;28;20090;-63
2022/10/15 08:41:50;;;;;;;45.97;37.88;;;15.30;99.90;;;;;;5081465;28;20036;-63
2022/10/15 08:44:31;;;;;;;40.72;33.50;;;14.80;99.90;;;;;;5064474;28;20040;-65
2022/10/15 08:47:29;;;;;;;48.03;36.33;;;14.70;99.90;;;;;;5064827;28;20048;-64
2022/10/15 08:49:57;;;;;;;45.53;36.67;;;15.80;99.90;;;;;;5078319;28;20060;-64
2022/10/15 08:52:42;;;;;;;41.80;34.95;;;16.00;99.90;;;;;;5064249;28;20501;-66
2022/10/15 08:55:17;;;;;;;46.03;36.85;;;15.40;99.90;;;;;;5064216;28;20413;-63
2022/10/15 08:57:57;;;;;;;45.55;36.95;;;15.40;99.90;;;;;;5064451;28;20129;-64
2022/10/15 09:00:38;;;;;;;43.55;35.15;;;16.60;99.90;;;;;;5047439;28;20437;-63
2022/10/15 09:03:18;;;;;;;41.90;33.70;;;16.90;99.90;;;;;;5064165;28;20048;-63
2022/10/15 09:06:02;;;;;;;40.85;34.05;;;16.80;99.90;;;;;;5063897;28;20383;-64
2022/10/15 09:08:46;;;;;;;40.75;33.25;;;16.80;99.90;;;;;;5097845;28;20044;-64
2022/10/15 09:11:18;;;;;;;43.15;34.58;;;16.30;99.90;;;;;;5098002;28;20421;-64
2022/10/15 09:13:45;;;;;;;42.43;35.20;;;15.20;99.90;;;;;;5064399;28;20051;-66
2022/10/15 09:16:36;;;;;;;45.42;36.97;;;15.90;99.90;;;;;;5064296;28;20044;-63
2022/10/15 09:19:09;;;;;;;44.63;36.22;;;15.20;99.90;;;;;;5063603;28;20127;-62
2022/10/15 09:21:35;;;;;;;;;;;14.70;99.90;;;;;;5064755;28;20047;-64
2022/10/15 09:24:01;;;;;;;49.00;39.35;;;14.70;99.90;;;;;;5064196;28;20348;-63
2022/10/15 09:26:41;;;;;;;46.00;36.53;;;15.50;99.90;;;;;;5096965;28;20109;-63
2022/10/15 09:29:23;;;;;;;45.80;37.25;;;14.50;99.90;;;;;;5047574;28;20052;-62
2022/10/15 09:32:03;;;;;;;45.70;38.38;;;14.90;99.90;;;;;;5064479;28;20447;-63
2022/10/15 09:34:43;;;;;;;47.42;39.00;;;14.50;99.90;;;;;;5047838;28;20394;-67
2022/10/15 09:37:41;;;;;;;51.33;42.65;;;14.50;99.90;;;;;;5080161;28;20097;-63
2022/10/15 09:40:28;;;;;;;51.45;42.85;;;15.40;99.90;;;;;;5096876;28;20129;-64
2022/10/15 09:42:57;;;;;;;53.03;42.08;;;14.80;99.90;;;;;;5096923;28;20044;-63
2022/10/15 09:45:23;;;;;;;47.95;40.78;;;15.30;99.90;;;;;;5078914;28;20050;-64
2022/10/15 09:47:49;;;;;;;44.22;38.95;;;14.90;99.90;;;;;;5047589;28;20391;-64
2022/10/15 09:50:15;;;;;;;40.17;35.80;;;15.40;99.90;;;;;;5096683;28;20060;-63
2022/10/15 09:52:56;;;;;;;43.58;36.30;;;15.10;99.90;;;;;;5097107;28;20280;-64
2022/10/15 09:55:42;;;;;;;42.67;35.40;;;15.70;99.90;;;;;;5096492;28;20433;-64
2022/10/15 09:58:13;;;;;;;41.03;35.50;;;14.90;99.90;;;;;;5080017;28;20048;-64
2022/10/15 10:00:58;;;;;;;37.15;33.15;;;15.90;99.90;;;;;;5079676;28;20123;-64
2022/10/15 10:03:30;;;;;;;39.05;34.03;;;15.00;99.90;;;;;;5046438;28;20093;-64
2022/10/15 10:06:14;;;;;;;39.60;35.00;;;14.80;99.90;;;;;;5097209;28;20727;-63
2022/10/15 10:08:46;;;;;;;39.95;35.65;;;14.80;99.90;;;;;;5096500;28;20054;-64
2022/10/15 10:11:12;;;;;;;46.10;39.17;;;15.00;99.90;;;;;;5047408;28;20039;-65
2022/10/15 10:14:04;;;;;;;42.38;35.63;;;15.50;99.90;;;;;;5061487;28;20048;-64
2022/10/15 10:16:32;;;;;;;43.53;37.15;;;14.70;99.90;;;;;;5056795;28;20058;-64
2022/10/15 10:19:05;;;;;;;33.50;29.90;;;15.00;99.90;;;;;;5061396;28;20051;-65
2022/10/15 10:21:38;;;;;;;29.85;25.02;;;14.70;99.90;;;;;;5061522;28;20040;-66
2022/10/15 10:24:33;;;;;;;27.73;24.63;;;15.00;99.90;;;;;;5062078;28;20062;-64
2022/10/15 10:27:00;;;;;;;30.27;26.15;;;14.60;99.90;;;;;;5059837;28;20047;-64
2022/10/15 10:29:27;;;;;;;32.88;28.88;;;15.10;99.90;;;;;;5059000;28;20868;-64
2022/10/15 10:31:53;;;;;;;30.67;27.23;;;14.60;99.90;;;;;;5044248;28;20135;-64
2022/10/15 10:34:26;;;;;;;31.13;27.00;;;15.00;99.90;;;;;;5060042;28;20070;-65
2022/10/15 10:36:53;;;;;;;32.67;27.08;;;14.60;99.90;;;;;;5060612;28;20348;-62
2022/10/15 10:39:24;;;;;;;33.08;27.83;;;14.10;99.90;;;;;;5077481;28;20055;-65
2022/10/15 10:42:02;;;;;;;34.90;30.42;;;14.00;99.90;;;;;;5059177;28;20051;-63
2022/10/15 10:44:33;;;;;;;36.15;31.65;;;14.40;99.90;;;;;;5059852;28;20080;-63
2022/10/15 10:47:06;;;;;;;37.97;30.80;;;13.90;99.90;;;;;;5060086;28;20044;-63
2022/10/15 10:49:38;;;;;;;36.40;28.40;;;14.60;99.90;;;;;;5058592;28;20502;-63
2022/10/15 10:52:05;;;;;;;34.70;28.17;;;13.80;99.90;;;;;;5031160;28;20128;-64
2022/10/15 10:54:32;;;;;;;32.17;25.15;;;13.80;99.90;;;;;;5077188;28;20093;-63
2022/10/15 10:56:59;;;;;;;29.40;22.80;;;13.80;99.90;;;;;;5058068;28;20051;-63
2022/10/15 10:59:36;;;;;;;27.85;22.02;;;13.90;99.90;;;;;;5060450;28;20059;-64
2022/10/15 11:02:05;;;;;;;28.65;22.08;;;13.80;99.90;;;;;;5061178;28;20043;-64
2022/10/15 11:04:33;;;;;;;29.48;23.15;;;13.70;99.90;;;;;;5045631;28;20059;-64
2022/10/15 11:07:03;;;;;;;28.42;22.38;;;13.80;99.90;;;;;;5061787;28;20044;-62
2022/10/15 11:10:02;;;;;;;28.98;21.65;;;13.90;99.90;;;;;;5045383;28;20101;-63
2022/10/15 11:12:50;;;;;;;30.10;22.50;;;14.40;99.90;;;;;;5031193;28;20048;-66
2022/10/15 11:15:33;;;;;;;31.23;23.77;;;14.10;99.90;;;;;;5062385;28;20044;-64
2022/10/15 11:18:08;;;;;;;29.67;22.63;;;14.30;99.90;;;;;;5062112;28;20048;-65
2022/10/15 11:20:55;;;;;;;34.33;25.35;;;14.00;99.90;;;;;;5061807;28;20059;-65
2022/10/15 11:23:26;;;;;;;34.20;24.58;;;14.50;99.90;;;;;;5061892;28;20044;-64
2022/10/15 11:25:58;;;;;;;30.02;23.77;;;14.10;99.90;;;;;;5061797;28;20044;-62
2022/10/15 11:29:01;;;;;;;32.65;24.58;;;13.90;99.90;;;;;;5061748;28;20056;-63
2022/10/15 11:32:01;;;;;;;31.75;22.60;;;14.00;99.90;;;;;;5061922;28;20044;-64
2022/10/15 11:34:53;;;;;;;30.38;23.13;;;14.80;99.90;;;;;;5061587;28;20388;-63
2022/10/15 11:37:47;;;;;;;30.48;23.15;;;14.70;99.90;;;;;;5033109;28;20524;-64
2022/10/15 11:40:37;;;;;;;29.85;23.15;;;14.20;99.90;;;;;;5061938;28;20048;-63
2022/10/15 11:43:06;;;;;;;31.70;23.10;;;14.80;99.90;;;;;;5061469;28;20040;-63
2022/10/15 11:45:56;;;;;;;30.98;22.48;;;14.50;99.90;;;;;;5044749;28;20131;-63
2022/10/15 11:48:56;;;;;;;27.55;21.65;;;14.10;99.90;;;;;;5045138;28;20417;-64
2022/10/15 11:51:40;;;;;;;26.27;22.08;;;15.00;99.90;;;;;;5060999;28;20127;-64
2022/10/15 11:54:32;;;;;;;26.48;20.70;;;15.10;99.90;;;;;;5044968;28;20086;-64
2022/10/15 11:57:00;;;;;;;30.05;22.08;;;14.50;99.90;;;;;;5061660;28;20051;-64
2022/10/15 11:59:46;;;;;;;22.15;19.25;;;15.30;99.90;;;;;;5061482;28;20071;-64
2022/10/15 12:02:16;;;;;;;25.90;21.17;;;14.50;99.90;;;;;;5060885;28;20066;-63
2022/10/15 12:05:17;;;;;;;25.17;20.48;;;15.10;99.90;;;;;;5061926;28;20494;-64
2022/10/15 12:07:46;;;;;;;22.80;19.50;;;14.50;99.90;;;;;;5081321;28;20413;-65
2022/10/15 12:10:12;;;;;;;22.50;18.40;;;15.50;99.90;;;;;;5065598;28;20509;-65
2022/10/15 12:13:04;;;;;;;19.42;16.55;;;15.40;99.90;;;;;;5065364;28;20044;-64
2022/10/15 12:15:46;;;;;;;19.63;16.08;;;14.70;99.90;;;;;;5065060;28;20052;-62
2022/10/15 12:18:38;;;;;;;22.17;17.52;;;15.20;99.90;;;;;;5048105;28;20044;-63
2022/10/15 12:21:44;;;;;;;21.23;17.77;;;15.40;99.90;;;;;;5048377;28;20509;-64
2022/10/15 12:24:46;;;;;;;18.90;15.95;;;15.00;99.90;;;;;;5037709;28;20842;-63
2022/10/15 12:27:18;;;;;;;19.08;17.08;;;14.90;99.90;;;;;;5048268;28;20048;-64
2022/10/15 12:30:12;;;;;;;20.75;17.13;;;15.60;99.90;;;;;;5098582;28;20197;-63
2022/10/15 12:32:47;;;;;;;17.55;15.65;;;14.80;99.90;;;;;;5065284;28;20154;-63
2022/10/15 12:35:13;;;;;;;18.75;16.35;;;15.40;99.90;;;;;;5064624;28;20074;-63
2022/10/15 12:37:39;;;;;;;18.35;16.55;;;15.40;99.90;;;;;;5047982;28;20506;-63
2022/10/15 12:40:22;;;;;;;19.02;17.00;;;15.60;99.90;;;;;;5064837;28;20450;-64
2022/10/15 12:43:18;;;;;;;18.67;16.58;;;15.30;99.90;;;;;;5064921;28;20431;-64